Time;durP1;ratioP1;P1;durP2;ratioP2;P2;SDS_P1;SDS_P2;PMS_P1;PMS_P2;Temp;Humidity;BMP_temperature;BMP_pressure;BME280_temperature;BME280_humidity;BME280_pressure;Samples;Min_cycle;Max_cycle;Signal;HPM_P1;HPM_P2
2021/05/02 00:00:22;;;;;;;2.33;0.80;;;;;;;16.71;73.28;100132.84;5051977;28;20057;-61
2021/05/02 00:02:48;;;;;;;1.85;0.80;;;;;;;16.69;73.15;100128.69;5052081;28;20107;-68
2021/05/02 00:05:17;;;;;;;1.25;0.70;;;;;;;16.69;73.52;100141.91;5051709;28;20446;-61
2021/05/02 00:07:46;;;;;;;1.00;0.77;;;;;;;16.70;73.46;100147.06;5051949;28;20049;-62
2021/05/02 00:10:14;;;;;;;1.02;0.73;;;;;;;16.73;73.59;100141.47;5051889;28;20114;-67
2021/05/02 00:12:41;;;;;;;1.27;0.90;;;;;;;16.71;73.28;100151.41;5050967;28;20073;-61
2021/05/02 00:15:10;;;;;;;2.88;1.10;;;;;;;16.68;73.66;100151.66;5051710;28;20111;-62
2021/05/02 00:17:38;;;;;;;4.22;0.80;;;;;;;16.68;73.33;100150.84;5051053;28;20053;-61
2021/05/02 00:20:07;;;;;;;1.02;0.70;;;;;;;16.69;73.51;100153.34;5051939;28;20085;-61
2021/05/02 00:22:34;;;;;;;2.28;0.88;;;;;;;16.67;73.53;100152.66;5051861;28;20048;-63
2021/05/02 00:25:08;;;;;;;1.38;0.90;;;;;;;16.69;73.54;100153.34;5051841;28;20174;-61
2021/05/02 00:27:34;;;;;;;1.40;0.90;;;;;;;16.68;73.25;100159.63;5051813;28;20098;-66
2021/05/02 00:30:02;;;;;;;1.85;0.73;;;;;;;16.62;73.27;100149.56;5051677;28;20476;-61
2021/05/02 00:32:30;;;;;;;1.20;0.65;;;;;;;16.61;73.64;100150.56;5051692;28;20041;-63
2021/05/02 00:34:57;;;;;;;1.77;0.70;;;;;;;16.57;73.43;100143.88;5051704;28;20094;-62
2021/05/02 00:37:25;;;;;;;2.65;0.60;;;;;;;16.53;73.45;100147.78;5051565;28;20475;-61
2021/05/02 00:39:51;;;;;;;0.75;0.60;;;;;;;16.51;73.52;100149.75;5051652;28;20049;-63
2021/05/02 00:42:21;;;;;;;0.70;0.60;;;;;;;16.52;73.52;100160.19;5051648;28;20044;-62
2021/05/02 00:44:52;;;;;;;0.90;0.80;;;;;;;16.54;73.92;100152.94;5052940;28;20049;-64
2021/05/02 00:47:28;;;;;;;1.48;0.80;;;;;;;16.53;73.78;100158.38;5055471;28;20059;-66
2021/05/02 00:50:00;;;;;;;1.02;0.75;;;;;;;16.51;73.62;100153.22;5055218;28;20450;-64
2021/05/02 00:52:46;;;;;;;1.70;0.60;;;;;;;16.48;73.77;100164.06;5055330;28;20413;-61
2021/05/02 00:55:16;;;;;;;1.08;0.60;;;;;;;16.48;73.77;100154.34;5055141;28;20052;-61
2021/05/02 00:57:59;;;;;;;1.00;0.82;;;;;;;16.51;73.89;100161.16;5055252;28;20045;-61
2021/05/02 01:00:29;;;;;;;1.50;1.02;;;;;;;16.48;73.83;100157.00;5055240;28;20049;-61
2021/05/02 01:02:57;;;;;;;1.02;0.90;;;;;;;16.45;73.91;100154.59;5055110;28;20045;-62
2021/05/02 01:05:24;;;;;;;1.70;0.90;;;;;;;16.43;73.84;100150.44;5055217;28;20114;-68
2021/05/02 01:07:55;;;;;;;1.20;0.95;;;;;;;16.42;74.11;100143.47;5054927;28;20497;-61
2021/05/02 01:10:22;;;;;;;1.00;0.82;;;;;;;16.43;73.98;100145.13;5054776;28;20552;-61
2021/05/02 01:12:54;;;;;;;1.67;0.73;;;;;;;16.42;74.09;100149.59;5055081;28;20049;-68
2021/05/02 01:15:32;;;;;;;2.28;0.90;;;;;;;16.38;73.93;100150.00;5054858;28;20551;-60
2021/05/02 01:18:08;;;;;;;1.40;0.90;;;;;;;16.41;74.14;100155.03;5054640;28;20048;-69
2021/05/02 01:20:37;;;;;;;1.48;0.88;;;;;;;16.38;74.35;100150.88;5054889;28;20045;-62
2021/05/02 01:23:07;;;;;;;2.50;1.00;;;;;;;16.35;74.64;100156.41;5054779;28;20048;-68
2021/05/02 01:25:33;;;;;;;1.92;1.00;;;;;;;16.37;74.26;100156.31;5054646;28;20060;-64
2021/05/02 01:28:02;;;;;;;1.65;0.80;;;;;;;16.37;74.37;100151.84;5054559;28;20468;-62
2021/05/02 01:30:30;;;;;;;1.58;0.80;;;;;;;16.33;74.48;100153.91;5054616;28;20102;-68
2021/05/02 01:32:56;;;;;;;1.23;1.00;;;;;;;16.30;74.35;100156.00;5054417;28;20394;-67
2021/05/02 01:35:23;;;;;;;1.95;0.93;;;;;;;16.26;74.61;100151.97;5054340;28;20081;-61
2021/05/02 01:37:51;;;;;;;1.50;0.85;;;;;;;16.26;74.52;100158.09;5054478;28;20102;-61
2021/05/02 01:40:18;;;;;;;2.17;0.90;;;;;;;16.25;74.83;100159.09;5054346;28;20485;-62
2021/05/02 01:42:46;;;;;;;0.88;0.75;;;;;;;16.21;74.53;100155.00;5054533;28;20099;-61
2021/05/02 01:45:12;;;;;;;2.08;1.00;;;;;;;16.22;74.77;100158.53;5054244;28;20053;-61
2021/05/02 01:47:45;;;;;;;2.00;0.98;;;;;;;16.22;74.58;100161.16;5054118;28;20481;-64
2021/05/02 01:50:12;;;;;;;1.08;0.98;;;;;;;16.20;74.67;100169.25;5054109;28;20095;-61
2021/05/02 01:52:51;;;;;;;1.75;1.10;;;;;;;16.18;74.92;100168.53;5054121;28;20486;-69
2021/05/02 01:55:18;;;;;;;2.15;0.98;;;;;;;16.18;75.17;100165.91;5054162;28;20095;-61
2021/05/02 01:57:46;;;;;;;1.13;1.02;;;;;;;16.18;74.81;100176.47;5053144;28;20045;-68
2021/05/02 02:00:26;;;;;;;1.60;1.20;;;;;;;16.16;75.02;100173.13;5053961;28;20485;-67
2021/05/02 02:02:53;;;;;;;1.30;1.20;;;;;;;16.11;74.92;100178.84;5054067;28;20095;-61
2021/05/02 02:05:23;;;;;;;1.52;1.00;;;;;;;16.08;74.88;100187.03;5053825;28;20076;-62
2021/05/02 02:07:50;;;;;;;1.23;1.10;;;;;;;16.08;75.32;100187.03;5053798;28;20052;-61
2021/05/02 02:10:20;;;;;;;2.72;1.15;;;;;;;16.10;75.28;100192.19;5053736;28;20071;-68
2021/05/02 02:12:51;;;;;;;1.15;1.00;;;;;;;16.08;74.99;100202.94;5054059;28;20041;-61
2021/05/02 02:15:19;;;;;;;3.22;1.20;;;;;;;16.03;75.08;100199.84;5053796;28;20083;-65
2021/05/02 02:17:46;;;;;;;2.47;1.20;;;;;;;15.99;75.36;100198.47;5053471;28;20086;-61
2021/05/02 02:20:13;;;;;;;1.50;1.10;;;;;;;15.98;75.12;100207.38;5053617;28;20072;-61
2021/05/02 02:22:41;;;;;;;2.03;1.20;;;;;;;15.97;75.05;100201.25;5053525;28;20053;-64
2021/05/02 02:25:10;;;;;;;2.13;1.15;;;;;;;15.96;75.04;100204.88;5053385;28;20057;-69
2021/05/02 02:27:37;;;;;;;1.60;1.20;;;;;;;15.95;74.86;100208.47;5053528;28;20040;-67
2021/05/02 02:30:07;;;;;;;4.63;1.33;;;;;;;15.93;74.99;100213.06;5053505;28;20413;-61
2021/05/02 02:32:35;;;;;;;1.15;1.05;;;;;;;15.89;75.24;100219.59;5053432;28;20131;-61
2021/05/02 02:35:04;;;;;;;1.60;1.23;;;;;;;15.86;75.24;100211.94;5053177;28;20041;-61
2021/05/02 02:37:30;;;;;;;2.10;1.63;;;;;;;15.85;75.58;100212.91;5053221;28;20049;-62
2021/05/02 02:40:03;;;;;;;1.75;1.50;;;;;;;15.87;75.46;100215.41;5053183;28;20481;-68
2021/05/02 02:42:29;;;;;;;3.22;1.33;;;;;;;15.85;75.71;100212.06;5053291;28;20102;-68
2021/05/02 02:45:03;;;;;;;1.75;1.27;;;;;;;15.85;75.80;100209.44;5053173;28;20053;-61
2021/05/02 02:47:34;;;;;;;2.85;1.30;;;;;;;15.84;75.74;100213.88;5053169;28;20052;-64
2021/05/02 02:50:05;;;;;;;2.55;1.45;;;;;;;15.83;75.50;100212.19;5052907;28;20084;-61
2021/05/02 02:52:43;;;;;;;2.40;1.58;;;;;;;15.79;75.71;100205.47;5052844;28;20552;-65
2021/05/02 02:55:12;;;;;;;2.00;1.80;;;;;;;15.76;75.29;100214.50;5052744;28;20489;-68
2021/05/02 02:57:44;;;;;;;1.98;1.45;;;;;;;15.77;75.46;100212.69;5053234;28;20103;-62
2021/05/02 03:00:10;;;;;;;4.15;1.63;;;;;;;15.77;75.30;100224.13;5053052;28;20057;-61
2021/05/02 03:02:43;;;;;;;2.45;1.45;;;;;;;15.76;75.13;100230.38;5049845;28;20056;-61
2021/05/02 03:05:12;;;;;;;1.75;1.45;;;;;;;15.76;75.23;100233.03;5049205;28;20057;-67
2021/05/02 03:07:41;;;;;;;4.05;1.80;;;;;;;15.78;75.13;100232.88;5049343;28;20106;-61
2021/05/02 03:10:13;;;;;;;3.22;1.88;;;;;;;15.79;74.93;100234.56;5049466;28;20053;-61
2021/05/02 03:12:40;;;;;;;2.35;1.20;;;;;;;15.75;74.44;100228.69;5049192;28;20044;-67
2021/05/02 03:15:07;;;;;;;2.00;1.60;;;;;;;15.73;74.50;100235.94;5048314;28;20452;-68
2021/05/02 03:17:36;;;;;;;1.67;1.50;;;;;;;15.72;74.38;100228.13;5048902;28;20052;-61
2021/05/02 03:20:10;;;;;;;3.08;1.55;;;;;;;15.70;74.51;100230.09;5049193;28;20095;-67
2021/05/02 03:22:39;;;;;;;2.08;1.60;;;;;;;15.72;74.36;100234.28;5048962;28;20052;-61
2021/05/02 03:25:10;;;;;;;2.10;1.45;;;;;;;15.73;74.52;100233.31;5048872;28;20060;-61
2021/05/02 03:27:43;;;;;;;2.17;1.45;;;;;;;15.71;74.11;100240.53;5048869;28;20131;-64
2021/05/02 03:30:10;;;;;;;3.45;1.63;;;;;;;15.66;74.10;100237.44;5048895;28;20049;-62
2021/05/02 03:32:43;;;;;;;3.97;1.90;;;;;;;15.61;74.15;100234.38;5048803;28;20394;-61
2021/05/02 03:35:10;;;;;;;2.50;1.52;;;;;;;15.61;73.82;100237.00;5049123;28;20480;-67
2021/05/02 03:37:38;;;;;;;3.90;1.85;;;;;;;15.61;73.98;100239.66;5048841;28;20091;-61
2021/05/02 03:40:07;;;;;;;2.03;1.45;;;;;;;15.62;74.00;100239.50;5049111;28;20056;-68
2021/05/02 03:42:34;;;;;;;2.40;1.67;;;;;;;15.64;73.85;100234.94;5048939;28;20095;-61
2021/05/02 03:45:02;;;;;;;2.10;1.65;;;;;;;15.67;73.81;100234.66;5048906;28;20417;-62
2021/05/02 03:47:28;;;;;;;2.47;1.77;;;;;;;15.62;73.81;100247.44;5048645;28;20135;-69
2021/05/02 03:49:55;;;;;;;2.17;1.95;;;;;;;15.58;73.88;100261.06;5048729;28;20056;-61
2021/05/02 03:52:21;;;;;;;2.22;1.80;;;;;;;15.56;74.04;100255.06;5048300;28;20099;-62
2021/05/02 03:54:53;;;;;;;4.00;1.98;;;;;;;15.56;73.86;100255.91;5048821;28;20053;-69
2021/05/02 03:57:20;;;;;;;1.90;1.60;;;;;;;15.56;74.17;100269.13;5048294;28;20056;-61
2021/05/02 03:59:46;;;;;;;2.10;1.90;;;;;;;15.57;74.30;100260.22;5049029;28;20118;-68
2021/05/02 04:02:14;;;;;;;2.22;2.03;;;;;;;15.58;74.34;100274.28;5048504;28;20045;-68
2021/05/02 04:04:42;;;;;;;2.60;1.80;;;;;;;15.56;74.43;100279.69;5048322;28;20485;-62
2021/05/02 04:07:11;;;;;;;4.30;2.13;;;;;;;15.54;74.58;100279.03;5048543;28;20521;-61
2021/05/02 04:09:49;;;;;;;2.83;1.77;;;;;;;15.54;74.81;100288.75;5048414;28;20123;-68
2021/05/02 04:12:15;;;;;;;2.53;2.00;;;;;;;15.55;74.71;100275.38;5048367;28;20041;-65
2021/05/02 04:14:42;;;;;;;2.92;1.65;;;;;;;15.54;74.46;100286.94;5048363;28;20044;-62
2021/05/02 04:17:10;;;;;;;3.65;2.20;;;;;;;15.55;74.59;100290.41;5048042;28;20061;-62
2021/05/02 04:19:41;;;;;;;2.65;1.80;;;;;;;15.53;74.94;100287.91;5049202;28;20053;-61
2021/05/02 04:22:08;;;;;;;3.60;1.90;;;;;;;15.52;74.93;100286.22;5052272;28;20045;-68
2021/05/02 04:24:34;;;;;;;2.38;1.80;;;;;;;15.50;74.89;100299.59;5052408;28;20067;-61
2021/05/02 04:27:02;;;;;;;2.30;1.83;;;;;;;15.50;74.84;100301.38;5052192;28;20405;-61
2021/05/02 04:29:30;;;;;;;2.10;1.90;;;;;;;15.49;74.82;100294.41;5052185;28;20053;-61
2021/05/02 04:31:57;;;;;;;4.35;2.28;;;;;;;15.49;74.75;100303.19;5052020;28;20052;-63
2021/05/02 04:34:25;;;;;;;2.00;1.80;;;;;;;15.49;75.16;100304.97;5052157;28;20137;-62
2021/05/02 04:36:52;;;;;;;2.05;1.73;;;;;;;15.49;75.24;100304.97;5052263;28;20040;-62
2021/05/02 04:39:18;;;;;;;2.92;2.10;;;;;;;15.45;74.96;100307.06;5052139;28;20539;-62
2021/05/02 04:41:45;;;;;;;3.00;1.85;;;;;;;15.46;75.31;100297.31;5051952;28;20076;-61
2021/05/02 04:44:11;;;;;;;2.28;2.00;;;;;;;15.44;75.01;100308.03;5051897;28;20459;-67
2021/05/02 04:46:38;;;;;;;2.65;1.65;;;;;;;15.45;75.21;100308.88;5051853;28;20490;-62
2021/05/02 04:49:09;;;;;;;2.40;1.77;;;;;;;15.47;75.20;100309.59;5051675;28;20080;-61
2021/05/02 04:51:36;;;;;;;3.25;2.28;;;;;;;15.51;75.32;100308.34;5051832;28;20052;-66
2021/05/02 04:54:04;;;;;;;3.00;1.80;;;;;;;15.54;75.10;100321.31;5051909;28;20045;-61
2021/05/02 04:56:30;;;;;;;3.38;1.85;;;;;;;15.54;75.26;100320.47;5052008;28;20060;-62
2021/05/02 04:58:56;;;;;;;2.38;1.67;;;;;;;15.57;75.19;100334.28;5051826;28;20052;-68
2021/05/02 05:01:23;;;;;;;1.52;1.25;;;;;;;15.58;75.08;100329.81;5051659;28;20103;-62
2021/05/02 05:03:49;;;;;;;1.92;1.65;;;;;;;15.56;75.40;100326.47;5050196;28;20099;-61
2021/05/02 05:06:15;;;;;;;2.17;1.40;;;;;;;15.54;75.44;100331.06;5051491;28;20045;-65
2021/05/02 05:08:41;;;;;;;1.85;1.65;;;;;;;15.55;75.60;100335.38;5051482;28;20486;-64
2021/05/02 05:11:07;;;;;;;2.22;1.90;;;;;;;15.54;75.27;100338.97;5051439;28;20421;-65
2021/05/02 05:13:34;;;;;;;3.30;1.58;;;;;;;15.50;75.57;100344.53;5051272;28;20041;-68
2021/05/02 05:16:00;;;;;;;2.55;1.60;;;;;;;15.52;75.86;100341.75;5051082;28;20448;-61
2021/05/02 05:18:27;;;;;;;3.53;1.95;;;;;;;15.54;75.79;100350.41;5051462;28;20102;-68
2021/05/02 05:20:55;;;;;;;2.35;1.95;;;;;;;15.54;75.70;100358.34;5051326;28;20051;-67
2021/05/02 05:23:22;;;;;;;4.03;2.58;;;;;;;15.56;75.96;100358.22;5051194;28;20459;-61
2021/05/02 05:25:48;;;;;;;4.60;2.15;;;;;;;15.60;75.86;100356.97;5051403;28;20049;-67
2021/05/02 05:28:15;;;;;;;2.20;2.00;;;;;;;15.66;76.00;100364.41;5051318;28;20045;-68
2021/05/02 05:30:41;;;;;;;2.67;1.50;;;;;;;15.65;75.75;100375.94;5050556;28;20103;-62
2021/05/02 05:33:09;;;;;;;5.10;2.70;;;;;;;15.69;75.74;100382.66;5050448;28;20057;-61
2021/05/02 05:35:37;;;;;;;2.97;1.60;;;;;;;15.68;75.62;100387.13;5051010;28;20045;-68
2021/05/02 05:38:05;;;;;;;2.95;1.40;;;;;;;15.72;75.73;100392.13;5049623;28;20041;-68
2021/05/02 05:40:32;;;;;;;2.22;1.10;;;;;;;15.77;75.66;100400.53;5050752;28;20041;-62
2021/05/02 05:43:02;;;;;;;2.75;1.65;;;;;;;15.81;75.79;100396.66;5051060;28;20049;-68
2021/05/02 05:45:30;;;;;;;3.88;1.60;;;;;;;15.83;75.73;100403.53;5050779;28;20041;-65
2021/05/02 05:47:56;;;;;;;1.70;1.38;;;;;;;15.84;75.80;100412.31;5050722;28;20041;-62
2021/05/02 05:50:24;;;;;;;2.13;1.40;;;;;;;15.86;75.50;100405.09;5050728;28;20478;-61
2021/05/02 05:52:51;;;;;;;2.05;1.52;;;;;;;15.86;75.46;100422.75;5050624;28;20053;-66
2021/05/02 05:55:18;;;;;;;3.28;1.35;;;;;;;15.85;75.27;100426.41;5050474;28;20049;-61
2021/05/02 05:57:46;;;;;;;1.55;1.20;;;;;;;15.86;75.28;100434.19;5050920;28;20049;-61
2021/05/02 06:00:13;;;;;;;2.42;1.48;;;;;;;15.82;75.46;100433.59;5050774;28;20048;-62
2021/05/02 06:02:42;;;;;;;2.35;1.30;;;;;;;15.80;75.78;100439.97;5050677;28;20045;-61
2021/05/02 06:05:09;;;;;;;3.28;1.70;;;;;;;15.79;75.64;100443.56;5050436;28;20049;-61
2021/05/02 06:07:35;;;;;;;2.65;2.13;;;;;;;15.73;75.27;100436.16;5050406;28;20115;-68
2021/05/02 06:10:03;;;;;;;1.92;1.00;;;;;;;15.70;75.35;100439.06;5050319;28;20045;-61
2021/05/02 06:12:29;;;;;;;1.30;0.95;;;;;;;15.63;74.95;100436.91;5050273;28;20051;-65
2021/05/02 06:14:55;;;;;;;1.65;0.90;;;;;;;15.62;74.80;100455.56;5050486;28;20041;-61
2021/05/02 06:17:22;;;;;;;2.15;1.00;;;;;;;15.59;74.83;100450.50;5050113;28;20098;-62
2021/05/02 06:19:48;;;;;;;1.42;0.90;;;;;;;15.58;75.13;100462.06;5050290;28;20045;-61
2021/05/02 06:22:14;;;;;;;1.15;0.82;;;;;;;15.55;75.19;100460.50;5050091;28;20049;-67
2021/05/02 06:24:40;;;;;;;1.55;1.00;;;;;;;15.56;75.24;100464.00;5050222;28;20052;-61
2021/05/02 06:27:06;;;;;;;0.90;0.70;;;;;;;15.58;75.51;100467.34;5049931;28;20048;-66
2021/05/02 06:29:33;;;;;;;1.95;0.70;;;;;;;15.56;75.54;100464.84;5049909;28;20071;-61
2021/05/02 06:31:59;;;;;;;3.28;1.00;;;;;;;15.57;75.54;100471.81;5049772;28;20045;-61
2021/05/02 06:34:25;;;;;;;1.17;0.80;;;;;;;15.55;75.82;100472.91;5049786;28;20041;-68
2021/05/02 06:36:57;;;;;;;1.42;1.00;;;;;;;15.52;75.71;100482.75;5049887;28;20087;-61
2021/05/02 06:39:27;;;;;;;1.17;0.80;;;;;;;15.52;76.02;100481.94;5049659;28;20090;-67
2021/05/02 06:41:53;;;;;;;1.13;0.70;;;;;;;15.48;75.89;100478.69;5049632;28;20488;-68
2021/05/02 06:44:20;;;;;;;2.13;0.80;;;;;;;15.48;76.06;100485.78;5049209;28;20559;-61
2021/05/02 06:46:47;;;;;;;1.80;0.88;;;;;;;15.46;76.26;100493.81;5049290;28;20391;-61
2021/05/02 06:49:13;;;;;;;1.15;0.80;;;;;;;15.45;75.95;100497.47;5049517;28;20536;-61
2021/05/02 06:51:40;;;;;;;0.70;0.70;;;;;;;15.45;76.26;100499.25;5049624;28;20053;-66
2021/05/02 06:54:07;;;;;;;0.75;0.75;;;;;;;15.47;76.03;100502.63;5049570;28;20468;-64
2021/05/02 06:56:34;;;;;;;2.47;1.23;;;;;;;15.48;76.24;100509.59;5049730;28;20053;-62
2021/05/02 06:59:02;;;;;;;2.38;1.42;;;;;;;15.46;76.22;100507.06;5049368;28;20472;-60
2021/05/02 07:01:28;;;;;;;2.65;1.70;;;;;;;15.45;76.08;100510.69;5049426;28;20049;-68
2021/05/02 07:03:54;;;;;;;2.30;1.65;;;;;;;15.46;76.62;100525.56;5049161;28;20045;-67
2021/05/02 07:06:32;;;;;;;2.40;1.67;;;;;;;15.46;76.43;100522.91;5049378;28;20429;-61
2021/05/02 07:08:59;;;;;;;2.90;1.95;;;;;;;15.47;76.57;100523.78;5048026;28;20830;-61
2021/05/02 07:11:25;;;;;;;3.25;2.40;;;;;;;15.43;76.71;100525.81;5049354;28;20041;-68
2021/05/02 07:13:51;;;;;;;4.68;2.80;;;;;;;15.44;76.71;100531.94;5049335;28;20136;-61
2021/05/02 07:16:18;;;;;;;3.50;2.78;;;;;;;15.46;77.10;100530.03;5049076;28;20065;-61
2021/05/02 07:18:45;;;;;;;3.47;3.05;;;;;;;15.46;77.02;100536.13;5049023;28;20507;-61
2021/05/02 07:21:14;;;;;;;3.90;3.50;;;;;;;15.45;76.79;100534.47;5049329;28;20049;-60
2021/05/02 07:23:42;;;;;;;4.18;3.78;;;;;;;15.43;77.13;100539.03;5049229;28;20060;-61
2021/05/02 07:26:09;;;;;;;4.93;4.20;;;;;;;15.42;77.36;100542.66;5048999;28;20048;-61
2021/05/02 07:28:35;;;;;;;5.70;4.65;;;;;;;15.43;77.21;100546.16;5048912;28;20498;-68
2021/05/02 07:31:01;;;;;;;6.88;5.80;;;;;;;15.45;76.86;100550.34;5049042;28;20045;-61
2021/05/02 07:33:28;;;;;;;6.55;5.15;;;;;;;15.50;77.04;100552.59;5048946;28;20456;-64
2021/05/02 07:35:56;;;;;;;7.53;5.75;;;;;;;15.52;76.88;100551.50;5048929;28;20122;-67
2021/05/02 07:38:24;;;;;;;7.00;5.60;;;;;;;15.57;76.78;100560.91;5049194;28;20080;-61
2021/05/02 07:40:50;;;;;;;7.45;5.60;;;;;;;15.61;76.68;100565.81;5048675;28;20060;-61
2021/05/02 07:43:18;;;;;;;6.13;5.53;;;;;;;15.66;76.50;100562.78;5048876;28;20102;-60
2021/05/02 07:45:44;;;;;;;6.82;6.13;;;;;;;15.71;76.59;100567.72;5048739;28;20505;-61
2021/05/02 07:48:10;;;;;;;6.65;5.95;;;;;;;15.76;76.23;100560.25;5048872;28;20468;-68
2021/05/02 07:50:37;;;;;;;6.85;6.15;;;;;;;15.73;75.83;100571.06;5048742;28;20048;-60
2021/05/02 07:53:04;;;;;;;7.05;6.35;;;;;;;15.71;75.46;100571.19;5048392;28;20448;-61
2021/05/02 07:55:31;;;;;;;7.05;6.32;;;;;;;15.75;75.24;100569.16;5047927;28;20508;-61
2021/05/02 07:57:58;;;;;;;7.68;6.72;;;;;;;15.80;74.84;100575.72;5048711;28;20425;-61
2021/05/02 08:00:24;;;;;;;7.75;6.55;;;;;;;15.90;74.83;100570.56;5048608;28;20045;-65
2021/05/02 08:02:51;;;;;;;7.38;6.57;;;;;;;16.08;74.67;100580.59;5048355;28;20098;-61
2021/05/02 08:05:17;;;;;;;7.57;6.85;;;;;;;16.23;74.51;100584.63;5048278;28;20557;-61
2021/05/02 08:07:43;;;;;;;8.13;6.15;;;;;;;16.33;74.56;100584.72;5048385;28;20417;-68
2021/05/02 08:10:11;;;;;;;6.45;5.63;;;;;;;16.43;74.04;100588.25;5048265;28;20041;-63
2021/05/02 08:12:37;;;;;;;5.97;5.22;;;;;;;16.49;73.39;100579.81;5048309;28;20041;-61
2021/05/02 08:15:05;;;;;;;5.95;5.35;;;;;;;16.59;72.99;100584.31;5048563;28;20107;-63
2021/05/02 08:17:32;;;;;;;5.43;4.53;;;;;;;16.67;72.64;100591.59;5048236;28;20057;-61
2021/05/02 08:19:58;;;;;;;4.35;3.78;;;;;;;16.77;72.18;100597.78;5048472;28;20044;-61
2021/05/02 08:22:24;;;;;;;5.03;3.90;;;;;;;16.93;71.76;100598.19;5048438;28;20551;-61
2021/05/02 08:24:50;;;;;;;5.65;3.70;;;;;;;17.08;71.29;100605.81;5048437;28;20053;-65
2021/05/02 08:27:16;;;;;;;5.05;4.25;;;;;;;17.14;70.83;100608.75;5048116;28;20049;-62
2021/05/02 08:29:43;;;;;;;4.28;3.67;;;;;;;17.21;70.30;100613.53;5048751;28;20041;-61
2021/05/02 08:32:09;;;;;;;3.30;3.00;;;;;;;17.22;70.02;100613.41;5048081;28;20049;-61
2021/05/02 08:34:35;;;;;;;3.00;2.70;;;;;;;17.35;68.91;100607.03;5048169;28;20103;-69
2021/05/02 08:37:06;;;;;;;3.13;2.88;;;;;;;17.44;68.46;100601.72;5048234;28;20045;-63
2021/05/02 08:39:33;;;;;;;3.58;3.28;;;;;;;17.75;68.07;100598.16;5048265;28;20045;-63
2021/05/02 08:41:59;;;;;;;2.97;2.67;;;;;;;17.89;67.38;100600.44;5048121;28;20465;-63
2021/05/02 08:44:28;;;;;;;3.58;3.28;;;;;;;18.04;67.23;100600.91;5048039;28;20460;-70
2021/05/02 08:46:55;;;;;;;3.53;3.13;;;;;;;18.21;65.95;100598.53;5047990;28;20056;-66
2021/05/02 08:49:21;;;;;;;3.70;3.38;;;;;;;18.06;65.87;100598.94;5047997;28;20045;-64
2021/05/02 08:51:48;;;;;;;3.97;3.17;;;;;;;17.95;65.92;100604.38;5048048;28;20132;-67
2021/05/02 08:54:15;;;;;;;3.55;3.00;;;;;;;17.94;65.43;100600.03;5047899;28;20049;-70
2021/05/02 08:56:41;;;;;;;3.33;3.03;;;;;;;17.86;65.40;100608.66;5048286;28;20049;-62
2021/05/02 08:59:10;;;;;;;3.40;3.10;;;;;;;17.88;65.27;100612.03;5048201;28;20111;-61
2021/05/02 09:01:40;;;;;;;3.00;2.70;;;;;;;18.04;64.42;100621.31;5048151;28;20041;-61
2021/05/02 09:04:07;;;;;;;2.60;2.40;;;;;;;18.32;64.03;100602.84;5047843;28;20079;-61
2021/05/02 09:06:36;;;;;;;3.22;2.65;;;;;;;18.55;63.66;100603.38;5049901;28;20091;-61
2021/05/02 09:09:11;;;;;;;4.03;2.70;;;;;;;18.76;63.24;100605.84;5051333;28;20048;-61
2021/05/02 09:11:41;;;;;;;6.15;4.10;;;;;;;18.91;62.82;100609.75;5051667;28;20045;-61
2021/05/02 09:14:10;;;;;;;3.38;2.88;;;;;;;19.06;61.96;100610.13;5051484;28;20539;-61
2021/05/02 09:16:50;;;;;;;4.88;2.63;;;;;;;19.21;61.21;100605.19;5051330;28;20053;-61
2021/05/02 09:19:18;;;;;;;2.97;2.38;;;;;;;19.30;59.78;100594.63;5051095;28;20051;-61
2021/05/02 09:21:45;;;;;;;2.50;2.25;;;;;;;19.42;59.56;100596.94;5051345;28;20489;-61
2021/05/02 09:24:26;;;;;;;2.30;2.10;;;;;;;19.54;58.53;100604.72;5051362;28;20045;-65
2021/05/02 09:27:14;;;;;;;1.73;1.63;;;;;;;19.66;57.01;100603.53;5051098;28;20049;-61
2021/05/02 09:29:44;;;;;;;2.17;1.80;;;;;;;19.76;56.09;100600.81;5050987;28;20048;-61
2021/05/02 09:32:13;;;;;;;2.08;1.70;;;;;;;19.87;55.49;100603.28;5051072;28;20386;-66
2021/05/02 09:34:53;;;;;;;1.80;1.60;;;;;;;19.97;54.45;100600.56;5051058;28;20124;-62
2021/05/02 09:37:31;;;;;;;2.20;2.00;;;;;;;19.73;54.65;100609.09;5051187;28;20053;-61
2021/05/02 09:40:00;;;;;;;2.28;2.05;;;;;;;19.57;54.97;100610.59;5051228;28;20049;-68
2021/05/02 09:42:34;;;;;;;2.60;2.40;;;;;;;19.55;55.32;100615.25;5051061;28;20410;-64
2021/05/02 09:45:03;;;;;;;2.33;2.13;;;;;;;19.63;54.61;100617.16;5050747;28;20124;-61
2021/05/02 09:47:32;;;;;;;3.83;2.50;;;;;;;19.95;54.55;100609.66;5050736;28;20406;-61
2021/05/02 09:50:10;;;;;;;2.63;2.10;;;;;;;20.16;54.15;100609.38;5050791;28;20080;-68
2021/05/02 09:52:42;;;;;;;1.83;1.70;;;;;;;20.22;53.11;100601.59;5050471;28;20049;-67
2021/05/02 09:55:22;;;;;;;2.20;1.38;;;;;;;20.10;51.94;100610.84;5050467;28;20045;-61
2021/05/02 09:57:56;;;;;;;7.55;6.22;;;;;;;20.28;50.59;100621.47;5050915;28;20110;-67
2021/05/02 10:00:55;;;;;;;19.17;13.23;;;;;;;20.46;49.62;100612.63;5050679;28;20057;-61
2021/05/02 10:03:24;;;;;;;20.20;15.45;;;;;;;20.66;50.35;100597.28;5049111;28;20045;-61
2021/05/02 10:05:58;;;;;;;13.38;12.18;;;;;;;20.85;50.71;100607.75;5050481;28;20132;-62
2021/05/02 10:08:27;;;;;;;8.10;7.35;;;;;;;21.01;50.89;100606.16;5050337;28;20147;-68
2021/05/02 10:10:54;;;;;;;12.75;11.85;;;;;;;21.14;49.60;100603.91;5049399;28;20045;-61
2021/05/02 10:13:21;;;;;;;4.13;3.83;;;;;;;21.13;49.10;100612.91;5050868;28;20087;-61
2021/05/02 10:15:47;;;;;;;3.28;3.08;;;;;;;20.65;50.75;100619.59;5050386;28;20049;-62
2021/05/02 10:18:13;;;;;;;2.80;2.60;;;;;;;20.89;50.03;100610.94;5049377;28;20088;-61
2021/05/02 10:20:44;;;;;;;4.63;3.55;;;;;;;21.06;49.87;100609.19;5050450;28;20045;-68
2021/05/02 10:23:12;;;;;;;4.60;3.97;;;;;;;21.18;49.95;100610.59;5049970;28;20060;-63
2021/05/02 10:25:38;;;;;;;2.92;1.35;;;;;;;21.31;49.46;100604.81;5050106;28;20045;-62
2021/05/02 10:28:05;;;;;;;3.90;2.40;;;;;;;21.42;48.15;100606.34;5049849;28;20091;-68
2021/05/02 10:30:36;;;;;;;3.17;2.88;;;;;;;21.57;47.48;100609.25;5049882;28;20481;-62
2021/05/02 10:33:07;;;;;;;4.22;1.60;;;;;;;21.67;45.62;100603.78;5049737;28;20106;-61
2021/05/02 10:35:43;;;;;;;2.20;2.00;;;;;;;21.75;44.08;100601.16;5049668;28;20056;-61
2021/05/02 10:38:10;;;;;;;1.90;1.80;;;;;;;21.84;44.05;100600.16;5049798;28;20045;-64
2021/05/02 10:40:39;;;;;;;6.47;3.85;;;;;;;21.98;45.43;100604.00;5049940;28;20041;-61
2021/05/02 10:43:09;;;;;;;14.40;11.48;;;;;;;21.89;46.77;100609.50;5049828;28;20045;-63
2021/05/02 10:45:39;;;;;;;4.07;3.40;;;;;;;21.63;47.51;100616.63;5049782;28;20505;-66
2021/05/02 10:48:15;;;;;;;3.10;2.50;;;;;;;21.80;47.18;100616.66;5049563;28;20051;-61
2021/05/02 10:50:45;;;;;;;5.25;3.83;;;;;;;21.90;47.68;100612.00;5049464;28;20110;-61
2021/05/02 10:53:14;;;;;;;9.70;6.22;;;;;;;22.05;46.63;100617.53;5049398;28;20049;-66
2021/05/02 10:55:53;;;;;;;88.65;56.47;;;;;;;22.24;44.81;100624.41;5049418;28;20045;-62
2021/05/02 10:58:28;;;;;;;5.95;3.35;;;;;;;22.36;44.91;100616.91;5049701;28;20441;-68
2021/05/02 11:00:57;;;;;;;1.60;1.30;;;;;;;22.53;43.96;100608.91;5049592;28;20088;-62
2021/05/02 11:03:36;;;;;;;2.42;2.08;;;;;;;22.71;43.77;100603.34;5049303;28;20057;-61
2021/05/02 11:06:38;;;;;;;1.80;1.70;;;;;;;22.81;43.56;100607.50;5049203;28;20098;-63
2021/05/02 11:09:18;;;;;;;4.35;2.90;;;;;;;22.90;42.68;100599.47;5047654;28;20041;-62
2021/05/02 11:11:47;;;;;;;1.33;1.10;;;;;;;22.85;42.35;100602.63;5049314;28;20045;-68
2021/05/02 11:14:22;;;;;;;4.70;4.30;;;;;;;22.77;43.91;100611.53;5049397;28;20084;-62
2021/05/02 11:16:50;;;;;;;;;;;;;;;22.96;44.32;100604.13;5049528;28;20339;-61
2021/05/02 11:19:20;;;;;;;4.90;4.50;;;;;;;22.64;45.55;100605.88;5049094;28;19926;-68
2021/05/02 11:21:46;;;;;;;12.23;10.75;;;;;;;22.21;45.55;100615.88;5049161;28;20049;-62
2021/05/02 11:24:13;;;;;;;15.27;11.48;;;;;;;22.32;44.85;100607.53;5049036;28;20045;-67
2021/05/02 11:27:18;;;;;;;6.63;4.78;;;;;;;22.53;45.06;100603.56;5049054;28;20048;-61
2021/05/02 11:32:31;;;;;;;8.20;5.50;;;;;;;22.90;45.06;100594.94;5048764;28;20048;-68
2021/05/02 11:35:09;;;;;;;18.13;11.27;;;;;;;23.09;44.55;100596.38;5048970;28;20044;-61